Time;durP1;ratioP1;P1;durP2;ratioP2;P2;SDS_P1;SDS_P2;PMS_P1;PMS_P2;Temp;Humidity;BMP_temperature;BMP_pressure;BME280_temperature;BME280_humidity;BME280_pressure;Samples;Min_cycle;Max_cycle;Signal;HPM_P1;HPM_P2
2020/12/03 00:00:56;;;;;;;27.10;15.38;;;6.60;92.50;;;;;;2059323;28;20038;-82
2020/12/03 00:02:00;;;;;;;27.08;14.45;;;6.60;92.50;;;;;;2072124;28;20058;-82
2020/12/03 00:03:04;;;;;;;26.10;14.18;;;6.70;92.60;;;;;;2064600;28;20491;-82
2020/12/03 00:04:06;;;;;;;25.63;14.30;;;6.70;92.60;;;;;;2063838;28;20030;-82
2020/12/03 00:05:08;;;;;;;30.30;17.08;;;6.70;92.60;;;;;;2068135;28;20022;-82
2020/12/03 00:06:17;;;;;;;27.00;15.35;;;6.70;92.60;;;;;;2063598;28;20120;-82
2020/12/03 00:07:18;;;;;;;27.60;15.25;;;6.70;92.50;;;;;;2057848;28;20034;-81
2020/12/03 00:08:19;;;;;;;27.80;14.98;;;6.60;92.50;;;;;;2061202;28;20125;-82
2020/12/03 00:09:23;;;;;;;28.55;15.57;;;6.70;92.50;;;;;;2065225;28;20037;-82
2020/12/03 00:10:24;;;;;;;29.08;15.38;;;6.70;92.50;;;;;;2048771;28;21061;-82
2020/12/03 00:11:37;;;;;;;25.85;14.00;;;6.70;92.50;;;;;;2049214;28;20031;-82
2020/12/03 00:12:38;;;;;;;27.58;15.07;;;6.70;92.50;;;;;;2058231;28;20027;-81
2020/12/03 00:13:38;;;;;;;27.30;15.23;;;6.70;92.50;;;;;;2064672;28;20035;-81
2020/12/03 00:14:40;;;;;;;24.95;13.82;;;6.60;92.50;;;;;;2065898;28;20101;-80
2020/12/03 00:15:41;;;;;;;23.60;13.77;;;6.60;92.50;;;;;;2063240;28;20085;-80
2020/12/03 00:16:42;;;;;;;24.67;14.82;;;6.70;92.50;;;;;;2066022;28;20501;-80
2020/12/03 00:17:43;;;;;;;26.42;14.43;;;6.70;92.50;;;;;;2064198;28;20108;-79
2020/12/03 00:18:44;;;;;;;24.63;14.45;;;6.70;92.60;;;;;;2063667;28;20488;-80
2020/12/03 00:19:44;;;;;;;24.63;14.10;;;6.70;92.50;;;;;;2065712;28;20081;-79
2020/12/03 00:20:46;;;;;;;24.58;14.93;;;6.70;92.50;;;;;;2064935;28;20126;-79
2020/12/03 00:21:54;;;;;;;26.70;14.55;;;6.70;92.50;;;;;;2065855;28;20034;-80
2020/12/03 00:22:54;;;;;;;26.80;15.80;;;6.70;92.50;;;;;;2061459;28;20030;-80
2020/12/03 00:23:55;;;;;;;26.50;14.77;;;6.70;92.50;;;;;;2063110;28;20407;-80
2020/12/03 00:24:55;;;;;;;25.58;15.05;;;6.70;92.50;;;;;;2065476;28;20072;-80
2020/12/03 00:25:57;;;;;;;28.98;15.90;;;6.70;92.50;;;;;;2063840;28;20147;-80
2020/12/03 00:27:09;;;;;;;26.75;15.50;;;6.70;92.50;;;;;;2061802;28;20019;-80
2020/12/03 00:28:10;;;;;;;29.30;16.48;;;6.70;92.60;;;;;;2064888;28;20551;-79
2020/12/03 00:29:11;;;;;;;29.75;17.17;;;6.70;92.50;;;;;;2061669;28;20035;-80
2020/12/03 00:30:11;;;;;;;29.42;16.13;;;6.70;92.50;;;;;;2058357;28;20027;-80
2020/12/03 00:31:12;;;;;;;27.40;15.70;;;6.70;92.50;;;;;;2063646;28;20169;-80
2020/12/03 00:32:12;;;;;;;29.38;16.55;;;6.70;92.50;;;;;;2065889;28;20030;-80
2020/12/03 00:33:17;;;;;;;27.05;15.65;;;6.70;92.50;;;;;;2064189;28;20409;-80
2020/12/03 00:34:18;;;;;;;28.73;15.18;;;6.70;92.50;;;;;;2065966;28;20030;-81
2020/12/03 00:35:20;;;;;;;26.10;15.07;;;6.70;92.50;;;;;;2064370;28;20378;-79
2020/12/03 00:36:21;;;;;;;27.88;16.63;;;6.70;92.50;;;;;;2064883;28;20038;-80
2020/12/03 00:37:22;;;;;;;28.40;16.50;;;6.70;92.50;;;;;;2064074;28;20030;-80
2020/12/03 00:38:25;;;;;;;27.45;15.43;;;6.70;92.50;;;;;;2057807;28;20582;-80
2020/12/03 00:39:25;;;;;;;28.35;16.17;;;6.70;92.60;;;;;;2064563;28;20396;-80
2020/12/03 00:40:26;;;;;;;24.33;14.77;;;6.70;92.50;;;;;;2057002;28;20034;-80
2020/12/03 00:41:27;;;;;;;24.75;14.45;;;6.70;92.60;;;;;;2064099;28;20034;-80
2020/12/03 00:42:27;;;;;;;27.38;15.90;;;6.70;92.60;;;;;;2063183;28;20034;-80
2020/12/03 00:43:31;;;;;;;28.85;16.55;;;6.70;92.60;;;;;;2063697;28;20022;-80
2020/12/03 00:44:31;;;;;;;29.77;16.58;;;6.70;92.50;;;;;;2065202;28;20141;-80
2020/12/03 00:45:32;;;;;;;29.67;17.27;;;6.70;92.60;;;;;;2061742;28;20186;-80
2020/12/03 00:46:37;;;;;;;28.50;16.80;;;6.70;92.50;;;;;;2056990;28;20512;-80
2020/12/03 00:47:39;;;;;;;32.15;17.50;;;6.70;92.50;;;;;;2062697;28;20018;-80
2020/12/03 00:48:40;;;;;;;30.13;16.88;;;6.70;92.50;;;;;;2065270;28;20041;-80
2020/12/03 00:49:41;;;;;;;28.52;16.42;;;6.70;92.50;;;;;;2065191;28;20022;-80
2020/12/03 00:50:42;;;;;;;29.50;16.33;;;6.70;92.50;;;;;;2065186;28;20137;-80
2020/12/03 00:51:43;;;;;;;31.35;17.65;;;6.70;92.50;;;;;;2066188;28;20035;-80
2020/12/03 00:52:44;;;;;;;32.58;17.38;;;6.70;92.50;;;;;;2065348;28;20037;-80
2020/12/03 00:53:47;;;;;;;30.33;16.65;;;6.70;92.50;;;;;;2057388;28;20077;-80
2020/12/03 00:54:47;;;;;;;30.13;16.80;;;6.70;92.50;;;;;;2062220;28;20026;-80
2020/12/03 00:55:48;;;;;;;29.73;16.45;;;6.70;92.50;;;;;;2062939;28;20129;-80
2020/12/03 00:56:49;;;;;;;28.40;15.93;;;6.70;92.50;;;;;;2058578;28;20022;-80
2020/12/03 00:57:49;;;;;;;30.50;17.15;;;6.70;92.60;;;;;;2055711;28;20049;-80
2020/12/03 00:58:51;;;;;;;29.67;16.63;;;6.70;92.50;;;;;;2056192;28;20026;-80
2020/12/03 00:59:52;;;;;;;28.92;16.50;;;6.70;92.80;;;;;;2057084;28;20031;-79
2020/12/03 01:00:55;;;;;;;31.42;17.60;;;6.70;92.50;;;;;;2063067;28;20508;-80
2020/12/03 01:01:56;;;;;;;27.95;16.05;;;6.70;92.50;;;;;;2057844;28;20039;-80
2020/12/03 01:02:56;;;;;;;30.20;16.73;;;6.70;92.50;;;;;;2064339;28;20019;-80
2020/12/03 01:03:57;;;;;;;29.13;16.52;;;6.70;92.50;;;;;;2057011;28;20026;-80
2020/12/03 01:05:01;;;;;;;30.08;16.70;;;6.70;92.50;;;;;;2064863;28;20022;-80
2020/12/03 01:06:01;;;;;;;31.65;17.45;;;6.70;92.50;;;;;;2070552;28;20133;-80
2020/12/03 01:07:02;;;;;;;28.90;16.23;;;6.70;92.50;;;;;;2068817;28;20022;-80
2020/12/03 01:08:04;;;;;;;30.48;17.15;;;6.70;92.50;;;;;;2064514;28;20034;-80
2020/12/03 01:09:05;;;;;;;30.25;16.65;;;6.70;92.50;;;;;;2065282;28;20499;-80
2020/12/03 01:10:11;;;;;;;29.13;16.20;;;6.70;92.50;;;;;;2066077;28;20045;-80
2020/12/03 01:11:12;;;;;;;31.02;17.50;;;6.70;92.50;;;;;;2063921;28;20453;-80
2020/12/03 01:12:13;;;;;;;30.63;16.17;;;6.70;92.50;;;;;;2064649;28;20030;-80
2020/12/03 01:13:13;;;;;;;30.05;16.80;;;6.70;92.50;;;;;;2062777;28;20023;-79
2020/12/03 01:14:14;;;;;;;30.92;17.13;;;6.70;92.50;;;;;;2058845;28;20121;-79
2020/12/03 01:15:15;;;;;;;33.10;16.52;;;6.70;92.50;;;;;;2057675;28;20023;-80
2020/12/03 01:16:19;;;;;;;29.05;16.27;;;6.70;92.50;;;;;;2062685;28;20049;-80
2020/12/03 01:17:21;;;;;;;32.05;17.25;;;6.70;92.50;;;;;;2065221;28;20047;-80
2020/12/03 01:18:22;;;;;;;30.38;16.65;;;6.70;92.50;;;;;;2061362;28;20125;-80
2020/12/03 01:19:23;;;;;;;29.67;15.63;;;6.70;92.50;;;;;;2059890;28;20121;-80
2020/12/03 01:20:26;;;;;;;28.17;15.20;;;6.70;92.50;;;;;;2068375;28;20030;-80
2020/12/03 01:21:27;;;;;;;29.63;16.10;;;6.70;92.60;;;;;;2064844;28;20377;-80
2020/12/03 01:22:28;;;;;;;29.50;16.17;;;6.70;92.50;;;;;;2056396;28;20045;-80
2020/12/03 01:23:28;;;;;;;31.75;17.45;;;6.70;92.50;;;;;;2055612;28;20035;-81
2020/12/03 01:24:29;;;;;;;34.50;17.83;;;6.70;92.50;;;;;;2065225;28;20030;-80
2020/12/03 01:25:30;;;;;;;29.98;16.75;;;6.70;92.50;;;;;;2071710;28;20403;-80
2020/12/03 01:26:31;;;;;;;29.00;16.33;;;6.70;92.50;;;;;;2063757;28;20050;-80
2020/12/03 01:27:31;;;;;;;28.52;16.08;;;6.70;92.50;;;;;;2065362;28;20025;-80
2020/12/03 01:28:32;;;;;;;28.40;16.23;;;6.70;92.50;;;;;;2061342;28;20512;-80
2020/12/03 01:29:33;;;;;;;33.47;17.15;;;6.70;92.50;;;;;;2058275;28;20425;-79
2020/12/03 01:30:33;;;;;;;30.30;16.23;;;6.70;92.50;;;;;;2061711;28;20047;-80
2020/12/03 01:31:34;;;;;;;32.22;17.63;;;6.70;92.50;;;;;;2065281;28;20034;-79
2020/12/03 01:32:36;;;;;;;30.98;16.58;;;6.70;92.50;;;;;;2065492;28;20050;-79
2020/12/03 01:33:37;;;;;;;29.50;16.20;;;6.70;92.50;;;;;;2066589;28;20551;-80
2020/12/03 01:34:38;;;;;;;24.60;14.23;;;6.70;92.50;;;;;;2065136;28;20037;-79
2020/12/03 01:35:38;;;;;;;29.45;15.68;;;6.70;92.50;;;;;;2061838;28;20125;-79
2020/12/03 01:36:39;;;;;;;29.85;15.77;;;6.70;92.50;;;;;;2057976;28;20169;-80
2020/12/03 01:37:40;;;;;;;27.15;15.48;;;6.70;92.50;;;;;;2058606;28;20015;-80
2020/12/03 01:38:42;;;;;;;29.52;16.67;;;6.70;92.50;;;;;;2063654;28;20040;-80
2020/12/03 01:39:44;;;;;;;27.17;15.35;;;6.70;92.50;;;;;;2065284;28;20109;-79
2020/12/03 01:40:50;;;;;;;30.67;16.80;;;6.70;92.50;;;;;;2061680;28;20041;-80
2020/12/03 01:41:51;;;;;;;28.08;15.40;;;6.70;92.50;;;;;;2059609;28;20178;-80
2020/12/03 01:42:52;;;;;;;28.73;16.23;;;6.70;92.50;;;;;;2062476;28;20079;-79
2020/12/03 01:43:53;;;;;;;26.85;15.52;;;6.70;92.50;;;;;;2064027;28;20029;-80
2020/12/03 01:44:54;;;;;;;29.05;16.05;;;6.70;92.50;;;;;;2057362;28;20474;-79
2020/12/03 01:45:58;;;;;;;29.00;15.75;;;6.70;92.60;;;;;;2060721;28;20388;-80
2020/12/03 01:46:59;;;;;;;30.55;17.45;;;6.70;92.60;;;;;;2063833;28;20030;-80
2020/12/03 01:48:02;;;;;;;29.00;15.50;;;6.70;92.50;;;;;;2063005;28;20019;-81
2020/12/03 01:49:04;;;;;;;30.00;16.35;;;6.70;92.50;;;;;;2065276;28;20037;-80
2020/12/03 01:50:07;;;;;;;29.00;16.80;;;6.70;92.50;;;;;;2064630;28;20125;-79
2020/12/03 01:51:25;;;;;;;29.75;16.55;;;6.70;92.50;;;;;;2075464;28;20010;-80
2020/12/03 01:52:26;;;;;;;32.22;17.13;;;6.70;92.50;;;;;;2073851;28;20059;-79
2020/12/03 01:53:27;;;;;;;27.70;16.10;;;6.60;92.50;;;;;;2074036;28;20074;-80
2020/12/03 01:54:28;;;;;;;29.42;16.17;;;6.60;92.50;;;;;;2074085;28;20010;-79
2020/12/03 01:55:28;;;;;;;26.65;15.70;;;6.70;92.50;;;;;;2074721;28;20014;-78
2020/12/03 01:56:46;;;;;;;27.92;16.42;;;6.70;92.50;;;;;;2073901;28;20082;-80
2020/12/03 01:58:01;;;;;;;28.88;16.55;;;6.60;92.50;;;;;;2057829;28;20409;-79
2020/12/03 01:59:04;;;;;;;28.42;15.88;;;6.60;92.50;;;;;;2065442;28;20516;-79
2020/12/03 02:00:12;;;;;;;29.20;16.13;;;6.60;92.50;;;;;;2064193;28;20025;-79
2020/12/03 02:01:13;;;;;;;26.55;15.48;;;6.60;92.50;;;;;;2069703;28;20031;-79
2020/12/03 02:02:16;;;;;;;27.48;15.38;;;6.60;92.50;;;;;;2075641;28;20049;-80
2020/12/03 02:03:17;;;;;;;25.15;14.52;;;6.60;92.50;;;;;;2081971;28;20034;-79
2020/12/03 02:04:18;;;;;;;27.63;15.82;;;6.60;92.50;;;;;;2077691;28;20038;-79
2020/12/03 02:05:21;;;;;;;25.88;15.32;;;6.60;92.50;;;;;;2074763;28;20397;-79
2020/12/03 02:06:26;;;;;;;26.08;13.85;;;6.60;92.50;;;;;;2069927;28;20350;-79
2020/12/03 02:07:26;;;;;;;25.33;15.20;;;6.60;92.50;;;;;;2065327;28;20030;-79
2020/12/03 02:08:27;;;;;;;27.40;15.95;;;6.60;92.50;;;;;;2063804;28;20402;-79
2020/12/03 02:09:28;;;;;;;27.65;15.25;;;6.60;92.50;;;;;;2064787;28;20057;-80
2020/12/03 02:10:31;;;;;;;25.67;15.50;;;6.60;92.50;;;;;;2063710;28;20118;-79
2020/12/03 02:11:32;;;;;;;25.80;15.32;;;6.60;92.50;;;;;;2059607;28;20050;-79
2020/12/03 02:12:33;;;;;;;26.13;15.05;;;6.60;92.50;;;;;;2061442;28;20091;-79
2020/12/03 02:13:33;;;;;;;25.65;14.57;;;6.60;92.50;;;;;;2064708;28;20129;-78
2020/12/03 02:14:34;;;;;;;29.23;16.00;;;6.60;92.50;;;;;;2064897;28;20481;-79
2020/12/03 02:15:36;;;;;;;25.30;14.18;;;6.60;92.50;;;;;;2064135;28;20041;-79
2020/12/03 02:16:41;;;;;;;25.13;14.88;;;6.60;92.50;;;;;;2062357;28;20030;-79
2020/12/03 02:17:42;;;;;;;26.13;15.35;;;6.60;92.50;;;;;;2057887;28;20078;-79
2020/12/03 02:18:45;;;;;;;24.77;14.43;;;6.60;92.50;;;;;;2061940;28;20176;-79
2020/12/03 02:19:55;;;;;;;24.05;14.25;;;6.60;92.50;;;;;;2061471;28;20084;-79
2020/12/03 02:20:55;;;;;;;26.52;15.10;;;6.60;92.50;;;;;;2064432;28;20026;-79
2020/12/03 02:22:07;;;;;;;24.95;13.85;;;6.60;92.50;;;;;;2069097;28;20042;-79
2020/12/03 02:23:13;;;;;;;26.98;14.75;;;6.60;92.50;;;;;;2074095;28;20007;-79
2020/12/03 02:24:14;;;;;;;25.98;14.85;;;6.50;92.40;;;;;;2075252;28;20011;-80
2020/12/03 02:25:17;;;;;;;23.73;14.38;;;6.60;92.50;;;;;;2075937;28;20018;-80
2020/12/03 02:26:18;;;;;;;27.10;14.32;;;6.60;92.50;;;;;;2074437;28;20007;-78
2020/12/03 02:27:23;;;;;;;25.15;14.18;;;6.50;92.40;;;;;;2069425;28;20065;-79
2020/12/03 02:28:23;;;;;;;24.35;14.85;;;6.50;92.40;;;;;;2058816;28;21673;-79
2020/12/03 02:29:25;;;;;;;22.98;13.93;;;6.50;92.40;;;;;;2065465;28;20022;-79
2020/12/03 02:30:28;;;;;;;23.77;13.95;;;6.50;92.40;;;;;;2064530;28;20460;-79
2020/12/03 02:31:29;;;;;;;24.63;14.05;;;6.50;92.50;;;;;;2062836;28;20041;-79
2020/12/03 02:32:29;;;;;;;23.00;14.07;;;6.50;92.40;;;;;;2064921;28;20493;-79
2020/12/03 02:33:30;;;;;;;24.75;13.68;;;6.50;92.40;;;;;;2061844;28;20108;-79
2020/12/03 02:34:31;;;;;;;23.92;13.55;;;6.50;92.40;;;;;;2062252;28;20042;-78
2020/12/03 02:35:32;;;;;;;22.98;14.15;;;6.50;92.80;;;;;;2063589;28;20121;-79
2020/12/03 02:36:33;;;;;;;26.33;14.63;;;6.50;92.40;;;;;;2056761;28;20405;-79
2020/12/03 02:37:34;;;;;;;22.70;14.75;;;6.50;92.40;;;;;;2056547;28;20031;-79
2020/12/03 02:38:35;;;;;;;22.05;14.07;;;6.50;92.40;;;;;;2054288;28;20045;-79
2020/12/03 02:39:37;;;;;;;25.42;14.93;;;6.50;92.40;;;;;;2043898;29;20572;-79
2020/12/03 02:40:37;;;;;;;24.23;14.10;;;6.50;92.40;;;;;;2054043;28;20039;-79
2020/12/03 02:41:38;;;;;;;23.70;14.27;;;6.50;92.40;;;;;;2055737;28;20504;-79
2020/12/03 02:42:38;;;;;;;23.15;13.85;;;6.50;92.40;;;;;;2054899;28;20062;-79
2020/12/03 02:43:39;;;;;;;22.70;13.93;;;6.50;92.40;;;;;;2056428;28;20023;-79
2020/12/03 02:44:42;;;;;;;23.85;14.00;;;6.50;92.40;;;;;;2054994;28;20437;-80
2020/12/03 02:45:43;;;;;;;24.80;14.48;;;6.50;92.40;;;;;;2059805;28;20031;-79
2020/12/03 02:46:48;;;;;;;21.85;13.70;;;6.50;92.40;;;;;;2061313;28;20030;-80
2020/12/03 02:47:48;;;;;;;21.42;13.80;;;6.50;92.40;;;;;;2064180;28;20548;-79
2020/12/03 02:48:49;;;;;;;22.05;13.75;;;6.50;92.40;;;;;;2065366;28;20038;-80
2020/12/03 02:49:51;;;;;;;21.63;13.10;;;6.50;92.40;;;;;;2064321;28;20021;-79
2020/12/03 02:50:52;;;;;;;21.17;13.07;;;6.50;92.40;;;;;;2064026;28;20039;-79
2020/12/03 02:51:52;;;;;;;23.38;14.07;;;6.50;92.40;;;;;;2064443;28;20077;-80
2020/12/03 02:52:53;;;;;;;22.70;13.30;;;6.50;92.40;;;;;;2063936;28;20026;-79
2020/12/03 02:53:54;;;;;;;20.88;12.45;;;6.50;92.40;;;;;;2044821;28;20053;-80
2020/12/03 02:54:55;;;;;;;23.45;14.00;;;6.50;92.40;;;;;;2056905;28;20548;-80
2020/12/03 02:55:55;;;;;;;24.00;13.75;;;6.50;92.40;;;;;;2063564;28;20050;-80
2020/12/03 02:56:56;;;;;;;23.25;13.80;;;6.50;92.40;;;;;;2056606;28;20053;-79
2020/12/03 02:57:56;;;;;;;22.77;13.95;;;6.50;92.40;;;;;;2062866;28;20385;-79
2020/12/03 02:58:57;;;;;;;23.65;13.90;;;6.50;92.40;;;;;;2056420;28;20035;-79
2020/12/03 02:59:58;;;;;;;20.88;12.98;;;6.50;92.40;;;;;;2048431;28;20031;-79
2020/12/03 03:00:58;;;;;;;22.55;13.68;;;6.50;92.40;;;;;;2054971;28;20058;-79
2020/12/03 03:01:59;;;;;;;25.38;14.07;;;6.50;92.40;;;;;;2058236;28;20484;-79
2020/12/03 03:03:00;;;;;;;23.40;13.55;;;6.50;92.40;;;;;;2064513;28;20393;-79
2020/12/03 03:04:04;;;;;;;21.80;12.55;;;6.50;92.30;;;;;;2062725;28;20077;-80
2020/12/03 03:05:05;;;;;;;24.13;13.30;;;6.50;92.40;;;;;;2064795;28;20030;-79
2020/12/03 03:06:05;;;;;;;21.23;12.13;;;6.40;92.30;;;;;;2061752;28;20941;-78
2020/12/03 03:07:06;;;;;;;20.50;12.43;;;6.50;92.30;;;;;;2063741;28;20034;-79
2020/12/03 03:08:07;;;;;;;24.67;12.85;;;6.50;92.30;;;;;;2059075;28;20035;-79
2020/12/03 03:09:07;;;;;;;21.80;12.60;;;6.50;92.40;;;;;;2063877;28;20428;-79
2020/12/03 03:10:08;;;;;;;22.65;13.52;;;6.50;92.40;;;;;;2062852;28;20418;-79
2020/12/03 03:11:09;;;;;;;22.20;12.70;;;6.50;92.30;;;;;;2059560;28;20082;-79
2020/12/03 03:12:10;;;;;;;23.13;13.57;;;6.40;92.30;;;;;;2064673;28;20030;-79
2020/12/03 03:13:11;;;;;;;22.55;13.52;;;6.50;92.30;;;;;;2060277;28;20125;-79
2020/12/03 03:14:11;;;;;;;22.90;13.05;;;6.50;92.30;;;;;;2058125;28;20035;-79
2020/12/03 03:15:12;;;;;;;24.05;13.25;;;6.50;92.30;;;;;;2056979;28;20034;-80
2020/12/03 03:16:13;;;;;;;23.15;13.55;;;6.40;92.30;;;;;;2059551;28;20042;-80
2020/12/03 03:17:14;;;;;;;21.05;13.18;;;6.40;92.30;;;;;;2063447;28;20073;-80
2020/12/03 03:18:15;;;;;;;22.48;13.02;;;6.40;92.30;;;;;;2063301;28;20069;-80
2020/12/03 03:19:17;;;;;;;21.40;12.65;;;6.40;92.30;;;;;;2061085;28;20031;-79
2020/12/03 03:20:21;;;;;;;22.90;13.65;;;6.40;92.30;;;;;;2061437;28;20069;-79
2020/12/03 03:21:22;;;;;;;20.33;12.40;;;6.40;92.30;;;;;;2064739;28;20081;-80
2020/12/03 03:22:22;;;;;;;22.30;13.00;;;6.40;92.30;;;;;;2065224;28;20168;-79
2020/12/03 03:23:23;;;;;;;21.02;12.68;;;6.40;92.30;;;;;;2062529;28;20054;-80
2020/12/03 03:24:24;;;;;;;19.40;11.30;;;6.40;92.30;;;;;;2065305;28;20061;-80
2020/12/03 03:25:24;;;;;;;21.08;12.38;;;6.40;92.30;;;;;;2062376;28;20396;-79
2020/12/03 03:26:25;;;;;;;21.75;11.68;;;6.40;92.30;;;;;;2056865;28;20085;-79
2020/12/03 03:27:26;;;;;;;20.20;11.60;;;6.40;92.30;;;;;;2064525;28;20387;-79
2020/12/03 03:28:26;;;;;;;22.90;13.20;;;6.30;92.30;;;;;;2053292;28;20085;-80
2020/12/03 03:29:27;;;;;;;24.02;13.98;;;6.30;92.30;;;;;;2061719;28;20023;-79
2020/12/03 03:30:28;;;;;;;22.58;13.10;;;6.30;92.30;;;;;;2064015;28;20034;-79
2020/12/03 03:31:28;;;;;;;20.55;13.02;;;6.40;92.30;;;;;;2061722;28;20033;-79
2020/12/03 03:32:29;;;;;;;22.33;12.75;;;6.30;92.20;;;;;;2056545;28;20042;-80
2020/12/03 03:33:29;;;;;;;23.48;12.63;;;6.40;92.30;;;;;;2044481;28;20036;-79
2020/12/03 03:34:30;;;;;;;20.33;11.80;;;6.30;92.30;;;;;;2056531;28;20109;-80
2020/12/03 03:35:31;;;;;;;21.77;12.32;;;6.30;92.30;;;;;;2063626;28;20026;-79
2020/12/03 03:36:32;;;;;;;18.27;11.65;;;6.30;92.30;;;;;;2057729;28;20038;-80
2020/12/03 03:37:33;;;;;;;20.63;11.48;;;6.30;92.30;;;;;;2061605;28;20034;-79
2020/12/03 03:38:34;;;;;;;23.95;12.40;;;6.40;92.30;;;;;;2061033;28;20366;-80
2020/12/03 03:39:35;;;;;;;20.55;12.55;;;6.40;92.30;;;;;;2065120;28;20033;-79
2020/12/03 03:40:38;;;;;;;20.17;11.60;;;6.30;92.20;;;;;;2064172;28;20463;-79
2020/12/03 03:41:39;;;;;;;24.95;12.70;;;6.30;92.30;;;;;;2064470;28;20030;-80
2020/12/03 03:42:40;;;;;;;19.90;11.63;;;6.40;92.30;;;;;;2056347;28;20082;-79
2020/12/03 03:43:41;;;;;;;18.13;11.30;;;6.30;92.20;;;;;;2054016;28;20118;-80
2020/12/03 03:44:41;;;;;;;20.88;11.98;;;6.30;92.20;;;;;;2064523;28;20034;-79
2020/12/03 03:45:42;;;;;;;18.60;11.20;;;6.30;92.20;;;;;;2058945;28;20440;-80
2020/12/03 03:46:43;;;;;;;21.77;12.60;;;6.30;92.20;;;;;;2061279;28;20081;-79
2020/12/03 03:47:43;;;;;;;22.92;12.82;;;6.30;92.30;;;;;;2065154;28;20026;-80
2020/12/03 03:48:44;;;;;;;17.90;11.27;;;6.30;92.20;;;;;;2063945;28;20065;-80
2020/12/03 03:49:45;;;;;;;21.85;12.57;;;6.30;92.50;;;;;;2071449;28;20057;-80
2020/12/03 03:50:46;;;;;;;19.77;12.00;;;6.30;92.30;;;;;;2060279;28;20042;-79
2020/12/03 03:51:46;;;;;;;18.77;11.45;;;6.30;92.30;;;;;;2064249;28;20026;-79
2020/12/03 03:52:47;;;;;;;19.38;11.45;;;6.30;92.30;;;;;;2056382;28;20477;-80
2020/12/03 03:53:50;;;;;;;20.98;12.05;;;6.30;92.30;;;;;;2054400;28;20027;-80
2020/12/03 03:54:51;;;;;;;19.58;11.50;;;6.30;92.20;;;;;;2064469;28;20026;-80
2020/12/03 03:55:52;;;;;;;20.85;11.80;;;6.40;92.30;;;;;;2052643;28;20158;-80
2020/12/03 03:56:52;;;;;;;20.02;11.73;;;6.40;92.30;;;;;;2063572;28;20023;-80
2020/12/03 03:57:55;;;;;;;17.88;11.00;;;6.40;92.20;;;;;;2064154;28;20045;-79
2020/12/03 03:58:56;;;;;;;19.25;11.18;;;6.40;92.20;;;;;;2065089;28;20432;-80
2020/12/03 03:59:57;;;;;;;18.73;11.40;;;6.40;92.20;;;;;;2063690;28;20026;-80
2020/12/03 04:00:58;;;;;;;18.70;11.00;;;6.40;92.20;;;;;;2061779;28;20055;-79
2020/12/03 04:01:59;;;;;;;19.30;11.43;;;6.40;92.20;;;;;;2064234;28;20489;-80
2020/12/03 04:02:59;;;;;;;19.85;11.57;;;6.40;92.20;;;;;;2071420;28;20034;-79
2020/12/03 04:04:00;;;;;;;22.23;11.50;;;6.40;92.20;;;;;;2064037;28;20041;-80
2020/12/03 04:05:01;;;;;;;19.83;11.43;;;6.40;92.20;;;;;;2064501;28;20522;-79
2020/12/03 04:06:01;;;;;;;18.42;11.15;;;6.40;92.20;;;;;;2072058;28;20105;-80
2020/12/03 04:07:02;;;;;;;19.48;11.52;;;6.40;92.20;;;;;;2072443;28;20030;-79
2020/12/03 04:08:02;;;;;;;17.27;10.88;;;6.40;92.20;;;;;;2063296;28;20435;-79
2020/12/03 04:09:04;;;;;;;21.65;12.48;;;6.40;92.20;;;;;;2063150;28;20030;-79
2020/12/03 04:10:06;;;;;;;20.48;11.52;;;6.40;92.20;;;;;;2066813;28;20073;-80
2020/12/03 04:11:06;;;;;;;19.95;11.77;;;6.40;92.20;;;;;;2062331;28;20014;-80
2020/12/03 04:12:07;;;;;;;20.10;11.32;;;6.40;92.20;;;;;;2064414;28;20459;-80
2020/12/03 04:13:08;;;;;;;21.00;11.52;;;6.40;92.20;;;;;;2060679;28;21505;-79
2020/12/03 04:14:08;;;;;;;17.13;11.02;;;6.40;92.20;;;;;;2064222;28;20034;-79
2020/12/03 04:15:09;;;;;;;20.67;11.25;;;6.40;92.20;;;;;;2064375;28;20026;-80
2020/12/03 04:16:11;;;;;;;20.48;11.20;;;6.40;92.20;;;;;;2062776;28;20057;-79
2020/12/03 04:17:11;;;;;;;17.77;10.50;;;6.40;92.20;;;;;;2063830;28;20014;-80
2020/12/03 04:18:12;;;;;;;16.85;9.73;;;6.40;92.20;;;;;;2061557;28;20420;-80
2020/12/03 04:19:12;;;;;;;20.70;10.73;;;6.50;92.20;;;;;;2063659;28;20060;-80
2020/12/03 04:20:15;;;;;;;21.60;12.30;;;6.50;92.20;;;;;;2064076;28;20026;-80
2020/12/03 04:21:16;;;;;;;19.02;11.25;;;6.50;92.20;;;;;;2057332;28;20038;-80
2020/12/03 04:22:17;;;;;;;19.95;11.60;;;6.40;92.10;;;;;;2057408;28;20122;-80
2020/12/03 04:23:17;;;;;;;18.20;10.93;;;6.50;92.10;;;;;;2063535;28;20413;-79
2020/12/03 04:24:18;;;;;;;17.85;10.90;;;6.50;92.20;;;;;;2060132;28;20039;-80
2020/12/03 04:25:19;;;;;;;19.55;11.32;;;6.50;92.10;;;;;;2057021;28;20073;-80
2020/12/03 04:26:19;;;;;;;18.50;10.93;;;6.50;92.10;;;;;;2063180;28;20070;-80
2020/12/03 04:27:21;;;;;;;18.10;10.82;;;6.40;92.10;;;;;;2064872;28;20037;-80
2020/12/03 04:28:21;;;;;;;18.30;10.65;;;6.40;92.10;;;;;;2060878;28;20031;-80
2020/12/03 04:29:22;;;;;;;18.08;10.73;;;6.40;92.10;;;;;;2064738;28;20511;-80
2020/12/03 04:30:23;;;;;;;17.88;11.00;;;6.40;92.10;;;;;;2058429;28;20494;-80
2020/12/03 04:31:23;;;;;;;20.30;11.10;;;6.50;92.10;;;;;;2057276;28;20109;-80
2020/12/03 04:32:24;;;;;;;20.60;11.45;;;6.50;92.10;;;;;;2060547;28;20023;-80
2020/12/03 04:33:25;;;;;;;18.73;11.60;;;6.50;92.10;;;;;;2060680;28;20042;-79
2020/12/03 04:34:25;;;;;;;18.30;11.27;;;6.40;92.10;;;;;;2065548;28;20038;-79
2020/12/03 04:35:26;;;;;;;17.27;10.70;;;6.50;92.10;;;;;;2063552;28;20066;-79
2020/12/03 04:36:27;;;;;;;19.75;11.27;;;6.50;92.10;;;;;;2065698;28;20495;-80
2020/12/03 04:37:27;;;;;;;16.65;9.95;;;6.50;92.40;;;;;;2056776;28;20501;-80
2020/12/03 04:38:28;;;;;;;18.83;10.68;;;6.50;92.10;;;;;;2060258;28;20030;-80
2020/12/03 04:39:29;;;;;;;20.15;11.52;;;6.50;92.10;;;;;;2065354;28;20019;-80
2020/12/03 04:40:43;;;;;;;16.15;9.93;;;6.50;92.10;;;;;;2062369;28;20030;-80
2020/12/03 04:41:44;;;;;;;22.85;10.98;;;6.50;92.10;;;;;;2065748;28;20023;-80
2020/12/03 04:42:44;;;;;;;20.23;11.45;;;6.50;92.10;;;;;;2064530;28;20070;-80
2020/12/03 04:44:00;;;;;;;20.10;10.50;;;6.50;92.10;;;;;;2048813;28;20051;-80
2020/12/03 04:45:27;;;;;;;18.65;10.63;;;6.50;92.00;;;;;;2045515;28;20387;-80
2020/12/03 04:46:39;;;;;;;18.42;10.60;;;6.50;92.00;;;;;;2064087;28;20157;-80
2020/12/03 04:47:58;;;;;;;19.90;10.52;;;6.50;92.00;;;;;;2066289;28;20014;-80
2020/12/03 04:49:26;;;;;;;19.85;10.70;;;6.50;92.00;;;;;;2060123;28;20358;-80
2020/12/03 04:50:42;;;;;;;17.52;9.80;;;6.50;92.00;;;;;;2063953;28;20034;-80
2020/12/03 04:52:03;;;;;;;17.80;9.77;;;6.50;92.00;;;;;;2066923;28;20019;-80
2020/12/03 04:53:12;;;;;;;18.23;10.27;;;6.50;92.00;;;;;;2063728;28;20472;-79
2020/12/03 04:54:27;;;;;;;16.75;9.43;;;6.50;92.00;;;;;;2064587;28;20030;-80
2020/12/03 04:55:28;;;;;;;19.00;10.90;;;6.50;92.00;;;;;;2062606;28;20066;-80
2020/12/03 04:56:40;;;;;;;17.95;10.05;;;6.50;92.00;;;;;;2064552;28;20084;-80
2020/12/03 04:58:19;;;;;;;17.98;11.27;;;6.50;92.00;;;;;;2066384;28;20481;-80
2020/12/03 04:59:20;;;;;;;18.25;9.55;;;6.50;92.00;;;;;;2046496;28;20520;-80
2020/12/03 05:00:25;;;;;;;16.42;10.70;;;6.50;92.00;;;;;;2067360;28;20034;-80
2020/12/03 05:01:58;;;;;;;23.38;12.43;;;6.50;92.00;;;;;;2067654;28;20031;-80
2020/12/03 05:03:20;;;;;;;19.35;11.23;;;6.50;92.00;;;;;;2048801;28;20037;-80
2020/12/03 05:04:39;;;;;;;19.13;11.07;;;6.50;92.00;;;;;;2054341;28;20482;-81
2020/12/03 05:05:54;;;;;;;18.33;10.95;;;6.50;92.00;;;;;;2069149;28;20366;-80
2020/12/03 05:06:58;;;;;;;17.58;10.13;;;6.50;92.00;;;;;;2068032;28;20456;-81
2020/12/03 05:08:04;;;;;;;17.98;10.48;;;6.50;92.00;;;;;;2057625;28;20106;-80
2020/12/03 05:09:19;;;;;;;17.95;10.30;;;6.50;92.00;;;;;;2064166;28;20038;-81
2020/12/03 05:10:34;;;;;;;17.92;10.95;;;6.50;92.00;;;;;;2061026;28;20563;-80
2020/12/03 05:11:45;;;;;;;16.58;10.23;;;6.50;92.00;;;;;;2065392;28;20058;-80
2020/12/03 05:12:47;;;;;;;16.95;10.25;;;6.50;92.30;;;;;;2064789;28;20026;-80
2020/12/03 05:13:53;;;;;;;18.35;10.93;;;6.50;92.00;;;;;;2063591;28;20118;-80
2020/12/03 05:15:05;;;;;;;17.92;11.63;;;6.50;92.00;;;;;;2073615;28;20022;-80
2020/12/03 05:16:57;;;;;;;19.17;11.05;;;6.50;92.00;;;;;;2066167;28;20034;-80
2020/12/03 05:18:16;;;;;;;20.80;11.30;;;6.50;92.00;;;;;;2046890;28;20047;-80
2020/12/03 05:19:36;;;;;;;16.88;9.80;;;6.50;92.30;;;;;;2057221;28;20514;-81
2020/12/03 05:21:01;;;;;;;15.77;10.30;;;6.50;92.00;;;;;;2056929;28;20023;-80
2020/12/03 05:22:17;;;;;;;18.08;10.23;;;6.40;92.00;;;;;;2056774;28;20058;-81
2020/12/03 05:23:28;;;;;;;16.52;10.63;;;6.40;92.00;;;;;;2058756;28;20030;-81
2020/12/03 05:24:29;;;;;;;14.75;10.05;;;6.50;92.00;;;;;;2065600;28;20029;-81
2020/12/03 05:25:30;;;;;;;15.50;9.88;;;6.50;92.00;;;;;;2065424;28;20034;-81